sensor_id;sensor_type;location;lat;lon;timestamp;P1;P2;P0
33264;PMS5003;31404;53.974;-1.086;2022-12-29T00:00:35;4;1;
33264;PMS5003;31404;53.974;-1.086;2022-12-29T00:05:34;3;2;
33264;PMS5003;31404;53.974;-1.086;2022-12-29T00:10:34;1;1;
33264;PMS5003;31404;53.974;-1.086;2022-12-29T00:15:35;2;1;
33264;PMS5003;31404;53.974;-1.086;2022-12-29T00:20:35;2;2;
33264;PMS5003;31404;53.974;-1.086;2022-12-29T00:25:35;2;0;
33264;PMS5003;31404;53.974;-1.086;2022-12-29T00:30:34;3;1;
33264;PMS5003;31404;53.974;-1.086;2022-12-29T00:35:38;4;1;
33264;PMS5003;31404;53.974;-1.086;2022-12-29T00:40:35;1;1;
33264;PMS5003;31404;53.974;-1.086;2022-12-29T00:45:34;2;2;
33264;PMS5003;31404;53.974;-1.086;2022-12-29T00:50:34;3;1;
33264;PMS5003;31404;53.974;-1.086;2022-12-29T00:55:36;1;1;
33264;PMS5003;31404;53.974;-1.086;2022-12-29T01:00:34;1;1;
33264;PMS5003;31404;53.974;-1.086;2022-12-29T01:05:35;3;1;
33264;PMS5003;31404;53.974;-1.086;2022-12-29T01:10:34;4;1;
33264;PMS5003;31404;53.974;-1.086;2022-12-29T01:15:34;4;2;
33264;PMS5003;31404;53.974;-1.086;2022-12-29T01:20:34;1;1;
33264;PMS5003;31404;53.974;-1.086;2022-12-29T01:25:34;0;0;
33264;PMS5003;31404;53.974;-1.086;2022-12-29T01:30:34;0;0;
33264;PMS5003;31404;53.974;-1.086;2022-12-29T01:35:34;1;1;
33264;PMS5003;31404;53.974;-1.086;2022-12-29T01:45:34;0;0;
33264;PMS5003;31404;53.974;-1.086;2022-12-29T01:50:36;0;0;
33264;PMS5003;31404;53.974;-1.086;2022-12-29T01:55:35;0;0;
33264;PMS5003;31404;53.974;-1.086;2022-12-29T02:00:34;0;0;
33264;PMS5003;31404;53.974;-1.086;2022-12-29T02:05:36;0;0;
33264;PMS5003;31404;53.974;-1.086;2022-12-29T02:10:34;1;0;
33264;PMS5003;31404;53.974;-1.086;2022-12-29T02:15:35;0;0;
33264;PMS5003;31404;53.974;-1.086;2022-12-29T02:30:36;1;1;
33264;PMS5003;31404;53.974;-1.086;2022-12-29T02:35:35;1;0;
33264;PMS5003;31404;53.974;-1.086;2022-12-29T02:40:36;0;0;
33264;PMS5003;31404;53.974;-1.086;2022-12-29T02:45:35;1;1;
33264;PMS5003;31404;53.974;-1.086;2022-12-29T02:50:35;1;1;
33264;PMS5003;31404;53.974;-1.086;2022-12-29T02:55:29;1;1;
33264;PMS5003;31404;53.974;-1.086;2022-12-29T03:00:34;0;0;
33264;PMS5003;31404;53.974;-1.086;2022-12-29T03:10:37;0;0;
33264;PMS5003;31404;53.974;-1.086;2022-12-29T03:15:36;1;1;
33264;PMS5003;31404;53.974;-1.086;2022-12-29T03:20:36;0;0;
33264;PMS5003;31404;53.974;-1.086;2022-12-29T03:25:35;1;1;
33264;PMS5003;31404;53.974;-1.086;2022-12-29T03:30:35;2;2;
33264;PMS5003;31404;53.974;-1.086;2022-12-29T03:35:35;3;1;
33264;PMS5003;31404;53.974;-1.086;2022-12-29T03:40:34;1;1;
33264;PMS5003;31404;53.974;-1.086;2022-12-29T03:45:33;0;0;
33264;PMS5003;31404;53.974;-1.086;2022-12-29T03:50:34;2;1;
33264;PMS5003;31404;53.974;-1.086;2022-12-29T03:55:33;0;0;
33264;PMS5003;31404;53.974;-1.086;2022-12-29T04:00:34;2;2;
33264;PMS5003;31404;53.974;-1.086;2022-12-29T04:05:34;2;1;
33264;PMS5003;31404;53.974;-1.086;2022-12-29T04:10:34;3;1;
33264;PMS5003;31404;53.974;-1.086;2022-12-29T04:15:34;0;0;
33264;PMS5003;31404;53.974;-1.086;2022-12-29T04:20:34;1;1;
33264;PMS5003;31404;53.974;-1.086;2022-12-29T04:25:34;2;1;
33264;PMS5003;31404;53.974;-1.086;2022-12-29T04:30:34;3;1;
33264;PMS5003;31404;53.974;-1.086;2022-12-29T04:35:34;1;1;
33264;PMS5003;31404;53.974;-1.086;2022-12-29T04:40:35;3;1;
33264;PMS5003;31404;53.974;-1.086;2022-12-29T04:45:34;1;1;
33264;PMS5003;31404;53.974;-1.086;2022-12-29T04:50:34;1;1;
33264;PMS5003;31404;53.974;-1.086;2022-12-29T04:55:34;1;1;
33264;PMS5003;31404;53.974;-1.086;2022-12-29T05:00:34;2;2;
33264;PMS5003;31404;53.974;-1.086;2022-12-29T05:05:34;1;1;
33264;PMS5003;31404;53.974;-1.086;2022-12-29T05:10:34;1;1;
33264;PMS5003;31404;53.974;-1.086;2022-12-29T05:15:34;1;0;
33264;PMS5003;31404;53.974;-1.086;2022-12-29T05:20:34;2;1;
33264;PMS5003;31404;53.974;-1.086;2022-12-29T05:25:35;0;0;
33264;PMS5003;31404;53.974;-1.086;2022-12-29T05:30:37;1;1;
33264;PMS5003;31404;53.974;-1.086;2022-12-29T05:35:34;1;1;
33264;PMS5003;31404;53.974;-1.086;2022-12-29T05:40:34;1;1;
33264;PMS5003;31404;53.974;-1.086;2022-12-29T05:45:35;0;0;
33264;PMS5003;31404;53.974;-1.086;2022-12-29T05:50:34;1;1;
33264;PMS5003;31404;53.974;-1.086;2022-12-29T05:55:34;0;0;
33264;PMS5003;31404;53.974;-1.086;2022-12-29T06:00:34;4;2;
33264;PMS5003;31404;53.974;-1.086;2022-12-29T06:05:34;1;0;
33264;PMS5003;31404;53.974;-1.086;2022-12-29T06:10:35;2;1;
33264;PMS5003;31404;53.974;-1.086;2022-12-29T06:15:34;0;0;
33264;PMS5003;31404;53.974;-1.086;2022-12-29T06:20:34;3;2;
33264;PMS5003;31404;53.974;-1.086;2022-12-29T06:25:36;3;2;
33264;PMS5003;31404;53.974;-1.086;2022-12-29T06:30:34;3;1;
33264;PMS5003;31404;53.974;-1.086;2022-12-29T06:35:34;1;1;
33264;PMS5003;31404;53.974;-1.086;2022-12-29T06:40:34;2;1;
33264;PMS5003;31404;53.974;-1.086;2022-12-29T06:45:34;3;0;
33264;PMS5003;31404;53.974;-1.086;2022-12-29T06:50:34;1;1;
33264;PMS5003;31404;53.974;-1.086;2022-12-29T06:55:34;2;0;
33264;PMS5003;31404;53.974;-1.086;2022-12-29T07:00:34;3;0;
33264;PMS5003;31404;53.974;-1.086;2022-12-29T07:05:34;1;1;
33264;PMS5003;31404;53.974;-1.086;2022-12-29T07:10:34;1;1;
33264;PMS5003;31404;53.974;-1.086;2022-12-29T07:15:36;0;0;
33264;PMS5003;31404;53.974;-1.086;2022-12-29T07:20:34;2;2;
33264;PMS5003;31404;53.974;-1.086;2022-12-29T07:25:34;2;2;
33264;PMS5003;31404;53.974;-1.086;2022-12-29T07:30:36;3;2;
33264;PMS5003;31404;53.974;-1.086;2022-12-29T07:35:34;2;2;
33264;PMS5003;31404;53.974;-1.086;2022-12-29T07:40:35;3;1;
33264;PMS5003;31404;53.974;-1.086;2022-12-29T07:45:34;2;1;
33264;PMS5003;31404;53.974;-1.086;2022-12-29T07:50:34;2;2;
33264;PMS5003;31404;53.974;-1.086;2022-12-29T07:55:34;1;1;
33264;PMS5003;31404;53.974;-1.086;2022-12-29T08:00:34;2;2;
33264;PMS5003;31404;53.974;-1.086;2022-12-29T08:05:34;3;1;
33264;PMS5003;31404;53.974;-1.086;2022-12-29T08:10:34;1;1;
33264;PMS5003;31404;53.974;-1.086;2022-12-29T08:15:34;2;1;
33264;PMS5003;31404;53.974;-1.086;2022-12-29T08:20:34;2;2;
33264;PMS5003;31404;53.974;-1.086;2022-12-29T08:25:34;1;1;
33264;PMS5003;31404;53.974;-1.086;2022-12-29T08:30:35;0;0;
33264;PMS5003;31404;53.974;-1.086;2022-12-29T08:35:34;2;2;
33264;PMS5003;31404;53.974;-1.086;2022-12-29T08:40:34;1;1;
33264;PMS5003;31404;53.974;-1.086;2022-12-29T08:45:34;1;0;
33264;PMS5003;31404;53.974;-1.086;2022-12-29T08:50:34;1;1;
33264;PMS5003;31404;53.974;-1.086;2022-12-29T08:55:34;0;0;
33264;PMS5003;31404;53.974;-1.086;2022-12-29T09:00:34;7;2;
33264;PMS5003;31404;53.974;-1.086;2022-12-29T09:05:34;4;2;
33264;PMS5003;31404;53.974;-1.086;2022-12-29T09:10:34;3;1;
33264;PMS5003;31404;53.974;-1.086;2022-12-29T09:15:34;2;2;
33264;PMS5003;31404;53.974;-1.086;2022-12-29T09:20:34;1;1;
33264;PMS5003;31404;53.974;-1.086;2022-12-29T09:25:34;2;1;
33264;PMS5003;31404;53.974;-1.086;2022-12-29T09:30:34;2;2;
33264;PMS5003;31404;53.974;-1.086;2022-12-29T09:35:34;1;1;
33264;PMS5003;31404;53.974;-1.086;2022-12-29T09:40:35;3;2;
33264;PMS5003;31404;53.974;-1.086;2022-12-29T09:45:36;3;2;
33264;PMS5003;31404;53.974;-1.086;2022-12-29T09:50:34;2;1;
33264;PMS5003;31404;53.974;-1.086;2022-12-29T09:55:36;0;0;
33264;PMS5003;31404;53.974;-1.086;2022-12-29T10:00:36;0;0;
33264;PMS5003;31404;53.974;-1.086;2022-12-29T10:05:35;1;0;
33264;PMS5003;31404;53.974;-1.086;2022-12-29T10:10:35;1;1;
33264;PMS5003;31404;53.974;-1.086;2022-12-29T10:25:35;1;1;
33264;PMS5003;31404;53.974;-1.086;2022-12-29T10:30:34;2;0;
33264;PMS5003;31404;53.974;-1.086;2022-12-29T10:35:35;3;1;
33264;PMS5003;31404;53.974;-1.086;2022-12-29T10:40:36;4;2;
33264;PMS5003;31404;53.974;-1.086;2022-12-29T10:45:34;1;1;
33264;PMS5003;31404;53.974;-1.086;2022-12-29T10:50:34;2;2;
33264;PMS5003;31404;53.974;-1.086;2022-12-29T10:55:35;1;1;
33264;PMS5003;31404;53.974;-1.086;2022-12-29T11:00:34;2;1;
33264;PMS5003;31404;53.974;-1.086;2022-12-29T11:05:35;1;1;
33264;PMS5003;31404;53.974;-1.086;2022-12-29T11:10:35;4;0;
33264;PMS5003;31404;53.974;-1.086;2022-12-29T11:20:35;3;2;
33264;PMS5003;31404;53.974;-1.086;2022-12-29T11:30:34;1;1;
33264;PMS5003;31404;53.974;-1.086;2022-12-29T11:35:35;5;3;
33264;PMS5003;31404;53.974;-1.086;2022-12-29T11:40:37;1;1;
33264;PMS5003;31404;53.974;-1.086;2022-12-29T11:45:35;1;1;
33264;PMS5003;31404;53.974;-1.086;2022-12-29T11:50:35;1;1;
33264;PMS5003;31404;53.974;-1.086;2022-12-29T11:55:34;2;2;
33264;PMS5003;31404;53.974;-1.086;2022-12-29T12:00:35;4;2;
33264;PMS5003;31404;53.974;-1.086;2022-12-29T12:05:36;1;1;
33264;PMS5003;31404;53.974;-1.086;2022-12-29T12:10:36;2;1;
33264;PMS5003;31404;53.974;-1.086;2022-12-29T12:15:36;4;1;
33264;PMS5003;31404;53.974;-1.086;2022-12-29T12:20:36;2;1;
33264;PMS5003;31404;53.974;-1.086;2022-12-29T12:25:35;2;1;
33264;PMS5003;31404;53.974;-1.086;2022-12-29T12:30:36;3;3;
33264;PMS5003;31404;53.974;-1.086;2022-12-29T12:35:36;5;3;
33264;PMS5003;31404;53.974;-1.086;2022-12-29T12:40:39;7;4;
33264;PMS5003;31404;53.974;-1.086;2022-12-29T13:00:37;3;1;
33264;PMS5003;31404;53.974;-1.086;2022-12-29T13:10:36;2;2;
33264;PMS5003;31404;53.974;-1.086;2022-12-29T13:15:38;2;2;
33264;PMS5003;31404;53.974;-1.086;2022-12-29T13:20:35;4;2;
33264;PMS5003;31404;53.974;-1.086;2022-12-29T13:25:36;4;1;
33264;PMS5003;31404;53.974;-1.086;2022-12-29T13:30:36;1;1;
33264;PMS5003;31404;53.974;-1.086;2022-12-29T13:40:36;1;1;
33264;PMS5003;31404;53.974;-1.086;2022-12-29T13:45:34;6;2;
33264;PMS5003;31404;53.974;-1.086;2022-12-29T13:50:35;2;1;
33264;PMS5003;31404;53.974;-1.086;2022-12-29T13:55:35;1;1;
33264;PMS5003;31404;53.974;-1.086;2022-12-29T14:00:35;3;1;
33264;PMS5003;31404;53.974;-1.086;2022-12-29T14:05:34;0;0;
33264;PMS5003;31404;53.974;-1.086;2022-12-29T14:10:35;4;2;
33264;PMS5003;31404;53.974;-1.086;2022-12-29T14:15:36;3;2;
33264;PMS5003;31404;53.974;-1.086;2022-12-29T14:20:32;2;1;
33264;PMS5003;31404;53.974;-1.086;2022-12-29T14:40:34;2;2;
33264;PMS5003;31404;53.974;-1.086;2022-12-29T14:45:34;1;1;
33264;PMS5003;31404;53.974;-1.086;2022-12-29T14:50:36;2;2;
33264;PMS5003;31404;53.974;-1.086;2022-12-29T15:00:34;2;1;
33264;PMS5003;31404;53.974;-1.086;2022-12-29T15:05:36;5;2;
33264;PMS5003;31404;53.974;-1.086;2022-12-29T15:10:37;1;1;
33264;PMS5003;31404;53.974;-1.086;2022-12-29T15:15:36;0;0;
33264;PMS5003;31404;53.974;-1.086;2022-12-29T15:20:34;2;2;
33264;PMS5003;31404;53.974;-1.086;2022-12-29T15:25:34;3;3;
33264;PMS5003;31404;53.974;-1.086;2022-12-29T15:30:34;2;0;
33264;PMS5003;31404;53.974;-1.086;2022-12-29T15:35:35;1;1;
33264;PMS5003;31404;53.974;-1.086;2022-12-29T15:40:35;3;1;
33264;PMS5003;31404;53.974;-1.086;2022-12-29T15:45:34;1;1;
33264;PMS5003;31404;53.974;-1.086;2022-12-29T15:50:34;2;1;
33264;PMS5003;31404;53.974;-1.086;2022-12-29T15:55:35;3;3;
33264;PMS5003;31404;53.974;-1.086;2022-12-29T16:00:35;3;3;
33264;PMS5003;31404;53.974;-1.086;2022-12-29T16:05:35;2;2;
33264;PMS5003;31404;53.974;-1.086;2022-12-29T16:10:35;3;1;
33264;PMS5003;31404;53.974;-1.086;2022-12-29T16:15:34;4;1;
33264;PMS5003;31404;53.974;-1.086;2022-12-29T16:20:37;2;0;
33264;PMS5003;31404;53.974;-1.086;2022-12-29T16:25:34;2;2;
33264;PMS5003;31404;53.974;-1.086;2022-12-29T16:30:34;2;2;
33264;PMS5003;31404;53.974;-1.086;2022-12-29T16:50:34;0;0;
33264;PMS5003;31404;53.974;-1.086;2022-12-29T16:55:34;3;1;
33264;PMS5003;31404;53.974;-1.086;2022-12-29T17:00:35;4;4;
33264;PMS5003;31404;53.974;-1.086;2022-12-29T17:05:34;6;3;
33264;PMS5003;31404;53.974;-1.086;2022-12-29T17:10:34;3;3;
33264;PMS5003;31404;53.974;-1.086;2022-12-29T17:15:34;6;3;
33264;PMS5003;31404;53.974;-1.086;2022-12-29T17:20:34;8;2;
33264;PMS5003;31404;53.974;-1.086;2022-12-29T17:25:35;8;8;
33264;PMS5003;31404;53.974;-1.086;2022-12-29T17:30:34;4;3;
33264;PMS5003;31404;53.974;-1.086;2022-12-29T17:35:35;8;6;
33264;PMS5003;31404;53.974;-1.086;2022-12-29T17:40:34;13;11;
33264;PMS5003;31404;53.974;-1.086;2022-12-29T17:45:34;3;3;
33264;PMS5003;31404;53.974;-1.086;2022-12-29T17:50:34;15;10;
33264;PMS5003;31404;53.974;-1.086;2022-12-29T17:55:34;8;6;
33264;PMS5003;31404;53.974;-1.086;2022-12-29T18:00:34;25;24;
33264;PMS5003;31404;53.974;-1.086;2022-12-29T18:05:34;10;8;
33264;PMS5003;31404;53.974;-1.086;2022-12-29T18:10:34;6;6;
33264;PMS5003;31404;53.974;-1.086;2022-12-29T18:15:30;6;6;
33264;PMS5003;31404;53.974;-1.086;2022-12-29T18:20:34;10;8;
33264;PMS5003;31404;53.974;-1.086;2022-12-29T18:25:37;9;8;
33264;PMS5003;31404;53.974;-1.086;2022-12-29T18:30:35;17;8;
33264;PMS5003;31404;53.974;-1.086;2022-12-29T18:35:36;9;6;
33264;PMS5003;31404;53.974;-1.086;2022-12-29T18:40:35;9;9;
33264;PMS5003;31404;53.974;-1.086;2022-12-29T18:45:35;3;3;
33264;PMS5003;31404;53.974;-1.086;2022-12-29T18:50:34;6;5;
33264;PMS5003;31404;53.974;-1.086;2022-12-29T18:55:34;8;6;
33264;PMS5003;31404;53.974;-1.086;2022-12-29T19:00:35;7;4;
33264;PMS5003;31404;53.974;-1.086;2022-12-29T19:05:35;12;8;
33264;PMS5003;31404;53.974;-1.086;2022-12-29T19:10:34;23;18;
33264;PMS5003;31404;53.974;-1.086;2022-12-29T19:15:35;10;9;
33264;PMS5003;31404;53.974;-1.086;2022-12-29T19:20:36;14;10;
33264;PMS5003;31404;53.974;-1.086;2022-12-29T19:25:34;5;5;
33264;PMS5003;31404;53.974;-1.086;2022-12-29T19:30:34;10;8;
33264;PMS5003;31404;53.974;-1.086;2022-12-29T19:35:34;7;7;
33264;PMS5003;31404;53.974;-1.086;2022-12-29T19:40:35;11;8;
33264;PMS5003;31404;53.974;-1.086;2022-12-29T19:45:36;15;15;
33264;PMS5003;31404;53.974;-1.086;2022-12-29T19:50:34;8;8;
33264;PMS5003;31404;53.974;-1.086;2022-12-29T19:55:34;12;12;
33264;PMS5003;31404;53.974;-1.086;2022-12-29T20:00:34;8;5;
33264;PMS5003;31404;53.974;-1.086;2022-12-29T20:05:34;7;6;
33264;PMS5003;31404;53.974;-1.086;2022-12-29T20:10:34;7;7;
33264;PMS5003;31404;53.974;-1.086;2022-12-29T20:15:34;7;5;
33264;PMS5003;31404;53.974;-1.086;2022-12-29T20:20:34;12;10;
33264;PMS5003;31404;53.974;-1.086;2022-12-29T20:25:35;5;1;
33264;PMS5003;31404;53.974;-1.086;2022-12-29T20:30:34;8;5;
33264;PMS5003;31404;53.974;-1.086;2022-12-29T20:35:35;6;5;
33264;PMS5003;31404;53.974;-1.086;2022-12-29T20:40:35;7;5;
33264;PMS5003;31404;53.974;-1.086;2022-12-29T20:45:34;6;6;
33264;PMS5003;31404;53.974;-1.086;2022-12-29T20:50:35;7;6;
33264;PMS5003;31404;53.974;-1.086;2022-12-29T20:55:34;5;5;
33264;PMS5003;31404;53.974;-1.086;2022-12-29T21:00:35;5;5;
33264;PMS5003;31404;53.974;-1.086;2022-12-29T21:05:35;6;4;
33264;PMS5003;31404;53.974;-1.086;2022-12-29T21:10:34;6;4;
33264;PMS5003;31404;53.974;-1.086;2022-12-29T21:15:34;7;6;
33264;PMS5003;31404;53.974;-1.086;2022-12-29T21:20:33;9;6;
33264;PMS5003;31404;53.974;-1.086;2022-12-29T21:25:34;1;1;
33264;PMS5003;31404;53.974;-1.086;2022-12-29T21:30:34;9;6;
33264;PMS5003;31404;53.974;-1.086;2022-12-29T21:35:34;4;4;
33264;PMS5003;31404;53.974;-1.086;2022-12-29T21:40:35;5;5;
33264;PMS5003;31404;53.974;-1.086;2022-12-29T21:45:34;5;4;
33264;PMS5003;31404;53.974;-1.086;2022-12-29T21:50:35;8;3;
33264;PMS5003;31404;53.974;-1.086;2022-12-29T21:55:34;5;3;
33264;PMS5003;31404;53.974;-1.086;2022-12-29T22:00:34;15;13;
33264;PMS5003;31404;53.974;-1.086;2022-12-29T22:05:34;9;9;
33264;PMS5003;31404;53.974;-1.086;2022-12-29T22:15:35;7;7;
33264;PMS5003;31404;53.974;-1.086;2022-12-29T22:20:34;4;4;
33264;PMS5003;31404;53.974;-1.086;2022-12-29T22:25:34;5;5;
33264;PMS5003;31404;53.974;-1.086;2022-12-29T22:30:34;4;3;
33264;PMS5003;31404;53.974;-1.086;2022-12-29T22:35:36;6;3;
33264;PMS5003;31404;53.974;-1.086;2022-12-29T22:40:34;3;1;
33264;PMS5003;31404;53.974;-1.086;2022-12-29T22:45:34;6;5;
33264;PMS5003;31404;53.974;-1.086;2022-12-29T22:50:35;6;4;
33264;PMS5003;31404;53.974;-1.086;2022-12-29T22:55:34;6;4;
33264;PMS5003;31404;53.974;-1.086;2022-12-29T23:00:35;9;5;
33264;PMS5003;31404;53.974;-1.086;2022-12-29T23:05:34;7;4;
33264;PMS5003;31404;53.974;-1.086;2022-12-29T23:10:34;3;3;
33264;PMS5003;31404;53.974;-1.086;2022-12-29T23:15:35;4;4;
33264;PMS5003;31404;53.974;-1.086;2022-12-29T23:20:29;5;4;
33264;PMS5003;31404;53.974;-1.086;2022-12-29T23:25:35;7;6;
33264;PMS5003;31404;53.974;-1.086;2022-12-29T23:30:34;4;4;
33264;PMS5003;31404;53.974;-1.086;2022-12-29T23:35:35;6;6;
33264;PMS5003;31404;53.974;-1.086;2022-12-29T23:40:35;5;5;
33264;PMS5003;31404;53.974;-1.086;2022-12-29T23:45:34;5;3;
33264;PMS5003;31404;53.974;-1.086;2022-12-29T23:50:37;2;2;
33264;PMS5003;31404;53.974;-1.086;2022-12-29T23:55:34;4;4;
